Chester, West Virginia
Current Conditions -  °F | °C
As of 8:51 AM on Monday 20 Oct 2014 (Local Time) from KPIT Reporting Station
Overcast Overcast  
Wind Chill: 40°   Ceiling: 9000
Heat Index: 44°   Visibility: 10mi
Dew Point: 37°   Wind: 8mph
Humidity: 76%   Direction: 190°S
Pressure: 30.01"   Gusts: NA
Location:  40.61°N, 80.56°W
Report Text: KPIT 201251Z 19007KT 10SM SCT045 BKN090 OVC140 07/03 A3001 RMK AO2 SLP175 T00670028
Loading
Personal Weather Stations






























Interactive Weather Map
Tropical Storm Tracking
New forecast layout! Learn more

10-Day Weather Forecast

Advertisements
Track Severe Weather on mobile